createdAt,value
2024-03-11T00:02:07.211Z,16.20
2024-03-11T00:04:36.483Z,15.20
2024-03-11T00:07:05.984Z,14.60
2024-03-11T00:09:34.974Z,16.40
2024-03-11T00:12:04.892Z,14.40
2024-03-11T00:14:35.145Z,16.10
2024-03-11T00:17:04.465Z,14.70
2024-03-11T00:19:33.405Z,14.60
2024-03-11T00:22:02.217Z,15.80
2024-03-11T00:24:35.459Z,14.50
2024-03-11T00:27:09.283Z,15.20
2024-03-11T00:29:38.671Z,15.10
2024-03-11T00:32:07.534Z,14.90
2024-03-11T00:34:36.778Z,15.20
2024-03-11T00:37:05.458Z,16.40
2024-03-11T00:39:35.821Z,14.60
2024-03-11T00:42:04.639Z,14.00
2024-03-11T00:44:33.554Z,15.00
2024-03-11T00:47:04.506Z,15.20
2024-03-11T00:49:36.274Z,14.30
2024-03-11T00:52:06.185Z,16.10
2024-03-11T00:54:34.960Z,17.20
2024-03-11T00:57:06.716Z,17.60
2024-03-11T00:59:37.542Z,19.30
2024-03-11T01:02:08.789Z,18.70
2024-03-11T01:04:38.249Z,18.00
2024-03-11T01:07:17.479Z,17.90
2024-03-11T01:09:51.619Z,18.00
2024-03-11T01:12:21.510Z,20.30
2024-03-11T01:14:53.008Z,18.70
2024-03-11T01:17:22.430Z,17.70
2024-03-11T01:19:51.231Z,16.70
2024-03-11T01:22:19.930Z,17.80
2024-03-11T01:24:48.707Z,18.20
2024-03-11T01:27:18.264Z,21.00
2024-03-11T01:29:47.960Z,17.00
2024-03-11T01:32:19.029Z,18.50
2024-03-11T01:34:48.607Z,17.00
2024-03-11T01:37:17.923Z,19.00
2024-03-11T01:39:46.683Z,17.10
2024-03-11T01:42:16.708Z,14.10
2024-03-11T01:44:47.374Z,19.10
2024-03-11T01:47:17.294Z,18.70
2024-03-11T01:49:47.168Z,19.90
2024-03-11T01:52:17.815Z,15.60
2024-03-11T01:54:47.559Z,19.40
2024-03-11T01:57:17.368Z,19.90
2024-03-11T01:59:47.032Z,16.50
2024-03-11T02:02:16.298Z,18.00
2024-03-11T02:04:45.927Z,17.80
2024-03-11T02:07:18.955Z,16.70
2024-03-11T02:09:49.042Z,15.90
2024-03-11T02:12:20.086Z,15.20
2024-03-11T02:14:49.373Z,18.70
2024-03-11T02:17:18.720Z,20.10
2024-03-11T02:19:49.504Z,16.00
2024-03-11T02:22:19.294Z,14.40
2024-03-11T02:24:48.201Z,19.20
2024-03-11T02:27:18.107Z,17.40
2024-03-11T02:29:46.853Z,19.10
2024-03-11T02:32:16.107Z,17.20
2024-03-11T02:34:44.904Z,18.90
2024-03-11T02:37:13.658Z,16.80
2024-03-11T02:39:42.484Z,18.20
2024-03-11T02:42:11.096Z,17.70
2024-03-11T02:44:40.646Z,16.60
2024-03-11T02:47:09.269Z,19.50
2024-03-11T02:49:39.155Z,18.60
2024-03-11T02:52:10.987Z,19.20
2024-03-11T02:54:40.380Z,19.90
2024-03-11T02:57:09.182Z,19.50
2024-03-11T02:59:42.091Z,20.40
2024-03-11T03:02:11.743Z,20.90
2024-03-11T03:04:41.079Z,18.10
2024-03-11T03:07:14.375Z,17.30
2024-03-11T03:09:43.402Z,18.50
2024-03-11T03:12:14.448Z,20.80
2024-03-11T03:14:44.729Z,19.20
2024-03-11T03:17:13.790Z,21.00
2024-03-11T03:19:43.102Z,18.70
2024-03-11T03:22:12.746Z,15.70
2024-03-11T03:24:41.513Z,17.00
2024-03-11T03:27:10.972Z,11.60
2024-03-11T03:29:41.769Z,18.20
2024-03-11T03:32:10.633Z,14.90
2024-03-11T03:34:39.327Z,19.10
2024-03-11T03:37:08.295Z,17.40
2024-03-11T03:39:38.012Z,19.60
2024-03-11T03:42:07.157Z,18.70
2024-03-11T03:44:38.059Z,17.70
2024-03-11T03:47:07.513Z,22.40
2024-03-11T03:49:36.402Z,19.90
2024-03-11T03:52:06.836Z,18.50
2024-03-11T03:54:36.001Z,18.20
2024-03-11T03:57:05.231Z,16.50
2024-03-11T03:59:34.735Z,20.10
2024-03-11T04:02:03.681Z,17.60
2024-03-11T04:04:32.372Z,21.00
2024-03-11T04:07:01.002Z,19.90
2024-03-11T04:09:30.513Z,18.10
2024-03-11T04:11:59.996Z,18.10
2024-03-11T04:14:30.096Z,20.30
2024-03-11T04:16:59.885Z,22.10
2024-03-11T04:19:29.219Z,21.60
2024-03-11T04:22:00.776Z,18.80
2024-03-11T04:24:29.972Z,21.00
2024-03-11T04:27:01.075Z,21.10
2024-03-11T04:29:29.938Z,17.40
2024-03-11T04:31:59.569Z,20.90
2024-03-11T04:34:28.487Z,22.10
2024-03-11T04:36:57.737Z,20.20
2024-03-11T04:39:27.184Z,19.80
2024-03-11T04:41:56.036Z,21.20
2024-03-11T04:44:26.055Z,21.80
2024-03-11T04:46:57.097Z,24.10
2024-03-11T04:49:29.065Z,17.60
2024-03-11T04:51:59.542Z,19.30
2024-03-11T04:54:28.325Z,18.40
2024-03-11T04:56:58.804Z,22.60
2024-03-11T04:59:29.003Z,20.80
2024-03-11T05:01:59.103Z,19.30
2024-03-11T05:04:28.352Z,22.20
2024-03-11T05:06:57.008Z,26.30
2024-03-11T05:09:26.822Z,21.00
2024-03-11T05:11:55.821Z,24.00
2024-03-11T05:14:25.323Z,16.30
2024-03-11T05:16:57.904Z,19.70
2024-03-11T05:19:27.823Z,18.30
2024-03-11T05:21:57.203Z,20.50
2024-03-11T05:24:26.151Z,20.50
2024-03-11T05:26:54.957Z,22.80
2024-03-11T05:29:24.677Z,20.10
2024-03-11T05:31:54.675Z,19.80
2024-03-11T05:34:24.173Z,18.80
2024-03-11T05:36:53.416Z,22.40
2024-03-11T05:39:22.680Z,23.00
2024-03-11T05:41:52.188Z,18.20
2024-03-11T05:44:21.519Z,18.40
2024-03-11T05:46:51.636Z,23.40
2024-03-11T05:49:20.503Z,21.80
2024-03-11T05:51:49.964Z,22.00
2024-03-11T05:54:19.188Z,21.10
2024-03-11T05:56:55.430Z,20.10
2024-03-11T05:59:24.895Z,20.30
2024-03-11T06:01:58.967Z,20.80
2024-03-11T06:04:27.805Z,28.10
2024-03-11T06:06:57.003Z,22.40
2024-03-11T06:09:26.080Z,21.80
2024-03-11T06:11:56.222Z,18.40
2024-03-11T06:14:25.473Z,18.60
2024-03-11T06:16:55.047Z,23.80
2024-03-11T06:19:25.003Z,22.90
2024-03-11T06:21:55.597Z,25.30
2024-03-11T06:24:24.401Z,28.60
2024-03-11T06:26:55.203Z,23.80
2024-03-11T06:29:28.521Z,31.50
2024-03-11T06:31:57.793Z,30.80
2024-03-11T06:34:29.103Z,23.90
2024-03-11T06:36:57.646Z,22.80
2024-03-11T06:39:27.111Z,26.20
2024-03-11T06:41:55.984Z,25.00
2024-03-11T06:44:33.327Z,29.70
2024-03-11T06:49:42.757Z,34.20
2024-03-11T06:52:11.998Z,28.80
2024-03-11T06:54:42.408Z,24.60
2024-03-11T06:57:12.058Z,32.40
2024-03-11T06:59:41.786Z,22.80
2024-03-11T07:02:11.135Z,24.90
2024-03-11T07:04:40.455Z,25.30
2024-03-11T07:07:09.131Z,24.50
2024-03-11T07:09:38.881Z,24.40
2024-03-11T07:12:07.859Z,19.90
2024-03-11T07:14:39.182Z,25.60
2024-03-11T07:17:12.006Z,23.50
2024-03-11T07:19:42.418Z,21.90
2024-03-11T07:22:12.740Z,27.30
2024-03-11T07:24:43.526Z,24.00
2024-03-11T07:27:12.500Z,28.00
2024-03-11T07:29:41.916Z,24.60
2024-03-11T07:32:13.119Z,23.70
2024-03-11T07:34:43.864Z,25.40
2024-03-11T07:37:12.843Z,26.50
2024-03-11T07:39:41.949Z,23.00
2024-03-11T07:42:10.659Z,17.20
2024-03-11T07:44:40.125Z,26.90
2024-03-11T07:47:09.784Z,24.20
2024-03-11T07:49:39.154Z,25.70
2024-03-11T07:52:08.589Z,35.10
2024-03-11T07:54:38.390Z,25.20
2024-03-11T07:57:07.325Z,27.90
2024-03-11T07:59:36.533Z,26.60
2024-03-11T08:02:05.393Z,27.80
2024-03-11T08:04:35.557Z,27.50
2024-03-11T08:07:04.717Z,31.30
2024-03-11T08:09:33.665Z,26.50
2024-03-11T08:12:02.994Z,30.30
2024-03-11T08:14:32.869Z,33.80
2024-03-11T08:17:03.591Z,34.80
2024-03-11T08:19:33.910Z,28.70
2024-03-11T08:22:05.189Z,34.40
2024-03-11T08:24:38.375Z,34.00
2024-03-11T08:27:09.228Z,30.50
2024-03-11T08:29:38.591Z,30.90
2024-03-11T08:32:07.496Z,30.10
2024-03-11T08:34:37.360Z,36.10
2024-03-11T08:37:06.011Z,30.60
2024-03-11T08:39:35.617Z,39.40
2024-03-11T08:42:04.593Z,31.30
2024-03-11T08:44:34.289Z,30.20
2024-03-11T08:47:10.815Z,41.00
2024-03-11T08:49:42.076Z,31.80
2024-03-11T08:52:14.252Z,33.90
2024-03-11T08:54:45.044Z,40.50
2024-03-11T08:57:14.588Z,34.90
2024-03-11T08:59:43.258Z,34.00
2024-03-11T09:02:14.753Z,35.20
2024-03-11T09:04:44.000Z,31.90
2024-03-11T09:07:12.591Z,35.40
2024-03-11T09:09:41.826Z,35.10
2024-03-11T09:12:12.890Z,32.40
2024-03-11T09:14:42.047Z,33.80
2024-03-11T09:17:14.031Z,34.70
2024-03-11T09:19:48.623Z,34.60
2024-03-11T09:22:20.112Z,35.90
2024-03-11T09:24:50.689Z,37.90
2024-03-11T09:27:19.492Z,45.00
2024-03-11T09:29:49.223Z,49.80
2024-03-11T09:32:18.381Z,29.40
2024-03-11T09:34:48.499Z,54.00
2024-03-11T09:37:17.252Z,34.80
2024-03-11T09:39:46.017Z,35.30
2024-03-11T09:42:15.575Z,31.30
2024-03-11T09:44:45.738Z,30.40
2024-03-11T09:47:14.905Z,29.10
2024-03-11T09:49:43.888Z,34.30
2024-03-11T09:52:14.769Z,34.60
2024-03-11T09:54:44.344Z,32.60
2024-03-11T09:57:14.512Z,39.70
2024-03-11T09:59:45.207Z,44.90
2024-03-11T10:02:15.299Z,41.50
2024-03-11T10:04:44.242Z,38.90
2024-03-11T10:07:15.004Z,34.30
2024-03-11T10:09:47.455Z,41.30
2024-03-11T10:12:16.998Z,53.30
2024-03-11T10:14:49.486Z,41.90
2024-03-11T10:17:36.197Z,43.80
2024-03-11T10:20:15.771Z,52.60
2024-03-11T10:22:48.986Z,34.10
2024-03-11T10:25:24.145Z,33.60
2024-03-11T10:27:53.932Z,38.80
2024-03-11T10:30:24.869Z,35.60
2024-03-11T10:32:56.860Z,40.50
2024-03-11T10:35:28.512Z,36.50
2024-03-11T10:38:14.325Z,87.10
2024-03-11T10:40:47.036Z,45.80
2024-03-11T10:43:23.377Z,55.00
2024-03-11T10:45:52.388Z,40.90
2024-03-11T10:48:22.326Z,54.30
2024-03-11T10:50:57.404Z,27.80
2024-03-11T10:53:26.569Z,51.50
2024-03-11T10:56:00.577Z,31.10
2024-03-11T10:58:30.381Z,35.10
2024-03-11T11:01:02.731Z,46.60
2024-03-11T11:03:33.374Z,40.50
2024-03-11T11:06:02.748Z,30.50
2024-03-11T11:08:31.837Z,32.10
2024-03-11T11:11:00.782Z,47.20
2024-03-11T11:13:36.415Z,61.20
2024-03-11T11:16:06.322Z,169.70
2024-03-11T11:18:40.927Z,62.00
2024-03-11T11:21:12.216Z,45.30
2024-03-11T11:23:43.076Z,47.70
2024-03-11T11:26:12.300Z,48.10
2024-03-11T11:28:41.642Z,47.10
2024-03-11T11:31:14.126Z,35.00
2024-03-11T11:34:00.611Z,40.60
2024-03-11T11:36:41.846Z,36.50
2024-03-11T11:39:22.330Z,47.50
2024-03-11T11:41:55.805Z,49.80
2024-03-11T11:47:18.352Z,40.50
2024-03-11T11:49:49.524Z,56.20
2024-03-11T11:52:20.294Z,41.80
2024-03-11T11:54:49.856Z,61.00
2024-03-11T11:57:21.118Z,38.90
2024-03-11T11:59:54.341Z,48.60
2024-03-11T12:02:27.998Z,87.10
2024-03-11T12:04:57.321Z,33.60
2024-03-11T12:07:27.008Z,36.00
2024-03-11T12:10:04.340Z,45.70
2024-03-11T12:12:35.097Z,31.10
2024-03-11T12:15:05.124Z,48.70
2024-03-11T12:17:35.072Z,50.50
2024-03-11T12:20:22.864Z,71.40
2024-03-11T12:22:56.864Z,36.80
2024-03-11T12:25:34.733Z,39.20
2024-03-11T12:28:20.531Z,34.80
2024-03-11T12:30:52.989Z,35.70
2024-03-11T12:33:24.880Z,33.20
2024-03-11T12:35:54.278Z,33.80
2024-03-11T12:38:23.696Z,35.40
2024-03-11T12:40:54.120Z,37.30
2024-03-11T12:43:32.048Z,32.70
2024-03-11T12:46:02.355Z,32.10
2024-03-11T12:48:31.711Z,39.90
2024-03-11T12:51:02.471Z,49.40
2024-03-11T12:53:33.018Z,75.50
2024-03-11T12:56:03.428Z,66.20
2024-03-11T12:58:34.985Z,40.80
2024-03-11T13:01:08.175Z,43.20
2024-03-11T13:03:37.579Z,40.20
2024-03-11T13:06:06.363Z,34.10
2024-03-11T13:08:35.830Z,45.60
2024-03-11T13:11:09.298Z,40.60
2024-03-11T13:13:58.472Z,38.40
2024-03-11T13:16:28.355Z,33.90
2024-03-11T13:19:04.007Z,31.70
2024-03-11T13:21:34.320Z,36.00
2024-03-11T13:24:03.397Z,40.70
2024-03-11T13:26:31.988Z,40.70
2024-03-11T13:29:01.428Z,45.10
2024-03-11T13:31:32.743Z,31.60
2024-03-11T13:34:03.400Z,28.90
2024-03-11T13:36:33.533Z,29.60
2024-03-11T13:39:11.458Z,34.80
2024-03-11T13:41:41.109Z,34.40
2024-03-11T13:44:12.282Z,35.60
2024-03-11T13:46:48.328Z,30.20
2024-03-11T13:49:20.258Z,33.50
2024-03-11T13:51:50.862Z,37.00
2024-03-11T13:54:19.591Z,37.00
2024-03-11T13:56:50.279Z,33.30
2024-03-11T13:59:19.740Z,42.90
2024-03-11T14:01:49.629Z,54.40
2024-03-11T14:04:19.090Z,60.10
2024-03-11T14:06:48.205Z,49.10
2024-03-11T14:09:25.127Z,48.80
2024-03-11T14:11:54.722Z,35.60
2024-03-11T14:14:25.182Z,39.10
2024-03-11T14:16:54.504Z,45.10
2024-03-11T14:19:23.547Z,72.90
2024-03-11T14:21:53.563Z,54.20
2024-03-11T14:24:22.404Z,91.70
2024-03-11T14:26:50.919Z,58.80
2024-03-11T14:29:19.935Z,40.80
2024-03-11T14:31:48.401Z,32.90
2024-03-11T14:34:19.297Z,49.60
2024-03-11T14:36:48.233Z,39.20
2024-03-11T14:39:20.650Z,45.90
2024-03-11T14:41:50.462Z,42.20
2024-03-11T14:44:19.740Z,41.60
2024-03-11T14:46:57.217Z,42.60
2024-03-11T14:49:29.944Z,34.40
2024-03-11T14:51:58.725Z,40.80
2024-03-11T14:54:31.719Z,43.60
2024-03-11T14:57:00.532Z,43.70
2024-03-11T14:59:29.301Z,42.20
2024-03-11T15:02:00.450Z,41.70
2024-03-11T15:04:29.800Z,38.00
2024-03-11T15:06:59.063Z,55.70
2024-03-11T15:09:29.017Z,46.20
2024-03-11T15:11:59.458Z,49.30
2024-03-11T15:14:28.838Z,41.20
2024-03-11T15:17:02.071Z,48.80
2024-03-11T15:19:31.512Z,42.60
2024-03-11T15:22:00.382Z,43.70
2024-03-11T15:24:30.566Z,44.10
2024-03-11T15:26:59.861Z,42.80
2024-03-11T15:29:29.187Z,44.10
2024-03-11T15:31:57.794Z,39.40
2024-03-11T15:34:28.501Z,35.30
2024-03-11T15:36:58.961Z,45.10
2024-03-11T15:39:34.214Z,43.10
2024-03-11T15:42:04.984Z,42.90
2024-03-11T15:44:36.015Z,44.90
2024-03-11T15:47:05.085Z,41.40
2024-03-11T15:49:34.563Z,41.80
2024-03-11T15:52:07.916Z,43.40
2024-03-11T15:54:36.849Z,39.90
2024-03-11T15:57:07.358Z,47.20
2024-03-11T15:59:36.036Z,58.50
2024-03-11T16:02:07.224Z,87.40
2024-03-11T16:04:36.572Z,63.50
2024-03-11T16:07:06.153Z,78.70
2024-03-11T16:09:54.490Z,65.30
2024-03-11T16:12:23.653Z,53.90
2024-03-11T16:14:53.132Z,42.20
2024-03-11T16:17:22.977Z,51.20
2024-03-11T16:19:51.892Z,53.00
2024-03-11T16:22:22.058Z,43.50
2024-03-11T16:24:52.922Z,48.70
2024-03-11T16:27:21.402Z,45.80
2024-03-11T16:29:50.115Z,49.20
2024-03-11T16:32:19.064Z,51.80
2024-03-11T16:34:48.396Z,53.90
2024-03-11T16:37:19.206Z,47.80
2024-03-11T16:39:48.010Z,63.30
2024-03-11T16:42:20.314Z,56.70
2024-03-11T16:44:48.933Z,50.10
2024-03-11T16:47:17.773Z,43.40
2024-03-11T16:49:46.312Z,46.00
2024-03-11T16:52:17.241Z,49.30
2024-03-11T16:54:45.669Z,40.80
2024-03-11T16:57:14.852Z,43.30
2024-03-11T16:59:43.926Z,52.10
2024-03-11T17:02:13.096Z,42.70
2024-03-11T17:04:42.039Z,49.70
2024-03-11T17:07:10.708Z,48.90
2024-03-11T17:09:41.120Z,43.60
2024-03-11T17:12:13.872Z,45.90
2024-03-11T17:14:43.106Z,45.50
2024-03-11T17:17:15.084Z,32.90
2024-03-11T17:19:44.326Z,46.00
2024-03-11T17:22:15.113Z,57.00
2024-03-11T17:24:43.921Z,48.60
2024-03-11T17:27:12.639Z,46.80
2024-03-11T17:29:42.954Z,46.90
2024-03-11T17:32:12.222Z,47.00
2024-03-11T17:34:42.517Z,43.90
2024-03-11T17:37:13.345Z,44.70
2024-03-11T17:39:42.879Z,49.10
2024-03-11T17:42:17.048Z,39.70
2024-03-11T17:44:47.204Z,52.70
2024-03-11T17:47:15.791Z,62.10
2024-03-11T17:49:45.441Z,49.60
2024-03-11T17:52:14.085Z,50.70
2024-03-11T17:54:47.381Z,49.00
2024-03-11T17:57:16.528Z,59.50
2024-03-11T17:59:46.133Z,44.80
2024-03-11T18:02:16.407Z,57.20
2024-03-11T18:04:45.974Z,50.60
2024-03-11T18:07:15.140Z,55.20
2024-03-11T18:09:44.946Z,49.80
2024-03-11T18:12:13.920Z,49.40
2024-03-11T18:14:42.556Z,55.00
2024-03-11T18:17:14.833Z,56.40
2024-03-11T18:19:45.971Z,52.60
2024-03-11T18:22:15.594Z,52.30
2024-03-11T18:24:46.550Z,57.70
2024-03-11T18:27:18.378Z,59.50
2024-03-11T18:29:48.347Z,56.20
2024-03-11T18:32:17.501Z,69.00
2024-03-11T18:34:47.282Z,60.70
2024-03-11T18:37:17.196Z,61.50
2024-03-11T18:39:45.896Z,60.20
2024-03-11T18:42:15.027Z,55.90
2024-03-11T18:44:43.668Z,60.30
2024-03-11T18:47:12.791Z,64.00
2024-03-11T18:49:41.997Z,58.80
2024-03-11T18:52:11.186Z,60.20
2024-03-11T18:54:42.998Z,59.60
2024-03-11T18:57:12.463Z,62.40
2024-03-11T18:59:41.868Z,62.60
2024-03-11T19:02:11.053Z,58.80
2024-03-11T19:04:39.871Z,71.70
2024-03-11T19:07:13.695Z,48.50
2024-03-11T19:09:44.743Z,61.80
2024-03-11T19:12:14.569Z,66.90
2024-03-11T19:14:45.563Z,59.10
2024-03-11T19:17:17.430Z,58.40
2024-03-11T19:19:48.070Z,58.60
2024-03-11T19:22:18.475Z,54.90
2024-03-11T19:24:48.508Z,54.70
2024-03-11T19:27:18.945Z,61.40
2024-03-11T19:29:52.548Z,61.30
2024-03-11T19:32:22.497Z,66.20
2024-03-11T19:34:51.889Z,59.40
2024-03-11T19:37:56.382Z,61.00
2024-03-11T19:40:33.297Z,64.10
2024-03-11T19:43:24.616Z,57.60
2024-03-11T19:46:13.449Z,62.40
2024-03-11T19:49:01.907Z,58.00
2024-03-11T19:52:11.076Z,64.20
2024-03-11T19:54:58.755Z,57.90
2024-03-11T19:57:47.061Z,66.00
2024-03-11T20:00:38.130Z,55.80
2024-03-11T20:03:33.295Z,72.80
2024-03-11T20:06:21.205Z,67.40
2024-03-11T20:09:22.965Z,67.40
2024-03-11T20:12:13.624Z,68.00
2024-03-11T20:14:48.912Z,67.00
2024-03-11T20:17:38.989Z,64.10
2024-03-11T20:20:28.934Z,75.70
2024-03-11T20:23:15.150Z,62.00
2024-03-11T20:26:00.116Z,78.40
2024-03-11T20:28:36.402Z,73.00
2024-03-11T20:31:15.944Z,75.00
2024-03-11T20:33:46.199Z,64.40
2024-03-11T20:36:18.829Z,75.00
2024-03-11T20:38:48.671Z,81.40
2024-03-11T20:41:18.076Z,62.70
2024-03-11T20:43:48.071Z,78.10
2024-03-11T20:46:17.096Z,73.40
2024-03-11T20:48:46.915Z,70.50
2024-03-11T20:51:17.597Z,83.80
2024-03-11T20:53:46.367Z,77.20
2024-03-11T20:56:15.728Z,84.70
2024-03-11T20:58:44.680Z,77.30
2024-03-11T21:01:13.295Z,84.90
2024-03-11T21:03:42.493Z,84.30
2024-03-11T21:06:13.383Z,79.60
2024-03-11T21:08:44.501Z,72.80
2024-03-11T21:11:13.053Z,84.90
2024-03-11T21:13:43.036Z,91.30
2024-03-11T21:16:12.700Z,82.60
2024-03-11T21:18:46.002Z,72.20
2024-03-11T21:21:24.827Z,82.50
2024-03-11T21:24:16.603Z,97.20
2024-03-11T21:27:14.548Z,91.00
2024-03-11T21:29:44.348Z,89.20
2024-03-11T21:32:14.460Z,90.90
2024-03-11T21:34:47.489Z,94.40
2024-03-11T21:37:16.682Z,98.80
2024-03-11T21:39:45.228Z,85.40
2024-03-11T21:42:13.827Z,90.90
2024-03-11T21:44:42.990Z,91.10
2024-03-11T21:47:13.250Z,88.40
2024-03-11T21:49:42.176Z,95.10
2024-03-11T21:52:11.877Z,87.00
2024-03-11T21:54:42.868Z,94.90
2024-03-11T21:57:12.184Z,90.40
2024-03-11T21:59:47.463Z,89.60
2024-03-11T22:02:19.689Z,92.00
2024-03-11T22:04:52.156Z,92.10
2024-03-11T22:07:21.652Z,90.10
2024-03-11T22:09:51.797Z,84.70
2024-03-11T22:12:20.932Z,90.00
2024-03-11T22:14:49.728Z,91.30
2024-03-11T22:17:18.761Z,96.60
2024-03-11T22:19:48.243Z,90.00
2024-03-11T22:22:17.092Z,101.10
2024-03-11T22:24:46.571Z,99.10
2024-03-11T22:27:16.705Z,95.90
2024-03-11T22:29:45.403Z,101.80
2024-03-11T22:32:13.857Z,96.30
2024-03-11T22:34:43.724Z,92.10
2024-03-11T22:37:13.656Z,91.70
2024-03-11T22:39:43.259Z,92.30
2024-03-11T22:42:12.079Z,83.60
2024-03-11T22:44:41.574Z,80.80
2024-03-11T22:47:10.665Z,86.30
2024-03-11T22:49:40.668Z,95.50
2024-03-11T22:52:09.328Z,79.80
2024-03-11T22:54:39.872Z,80.10
2024-03-11T22:57:13.059Z,84.60
2024-03-11T22:59:41.978Z,89.50
2024-03-11T23:02:17.879Z,86.60
2024-03-11T23:04:50.765Z,78.60
2024-03-11T23:07:21.354Z,73.90
2024-03-11T23:09:50.093Z,78.50
2024-03-11T23:12:19.272Z,70.80
2024-03-11T23:14:47.652Z,80.60
2024-03-11T23:17:17.841Z,66.60
2024-03-11T23:19:50.149Z,73.50
2024-03-11T23:22:20.938Z,74.20
2024-03-11T23:24:50.843Z,81.40
2024-03-11T23:27:19.465Z,78.50
2024-03-11T23:29:48.086Z,77.00
2024-03-11T23:32:16.768Z,59.10
2024-03-11T23:34:45.797Z,69.20
2024-03-11T23:37:17.974Z,65.30
2024-03-11T23:39:48.950Z,64.60
2024-03-11T23:42:17.766Z,63.50
2024-03-11T23:44:46.365Z,67.60
2024-03-11T23:47:16.636Z,62.50
2024-03-11T23:49:46.777Z,125.00
2024-03-11T23:52:18.068Z,107.60
2024-03-11T23:54:46.729Z,99.60
2024-03-11T23:57:15.479Z,313.00
2024-03-11T23:59:44.164Z,108.30
